Time,TemperatureF,DewpointF,PressureIn,WindDirection,WindDirectionDegrees,WindSpeedMPH,WindSpeedGustMPH,Humidity,HourlyPrecipIn,Conditions,Clouds,dailyrainin,SoftwareType,DateUTC
2013-01-19 00:10:00,26.7,15.8,30.39,SSE,166,2.0,7.0,63,0.00,CLR,,0.00,WeatherDisplay:10.37,2013-01-19 05:10:00,
2013-01-19 00:20:00,27.1,16.2,30.39,South,176,3.0,7.0,63,0.00,CLR,,0.00,WeatherDisplay:10.37,2013-01-19 05:20:00,
2013-01-19 00:30:00,27.4,16.4,30.39,South,183,1.0,6.0,63,0.00,CLR,,0.00,WeatherDisplay:10.37,2013-01-19 05:30:00,
2013-01-19 00:40:00,27.6,16.3,30.39,SSW,196,2.0,6.0,62,0.00,CLR,,0.00,WeatherDisplay:10.37,2013-01-19 05:40:00,
2013-01-19 00:50:00,28.0,16.6,30.39,South,174,5.0,13.0,62,0.00,CLR,,0.00,WeatherDisplay:10.37,2013-01-19 05:50:00,
2013-01-19 01:00:00,28.3,16.6,30.38,SSW,201,6.0,12.0,61,0.00,CLR,,0.00,WeatherDisplay:10.37,2013-01-19 06:00:00,
2013-01-19 01:10:00,28.6,16.5,30.38,SSW,199,5.0,9.0,60,0.00,FEW,,0.00,WeatherDisplay:10.37,2013-01-19 06:10:00,
2013-01-19 01:20:00,28.8,16.6,30.38,SSW,202,2.0,14.0,60,0.00,FEW,,0.00,WeatherDisplay:10.37,2013-01-19 06:20:00,
2013-01-19 01:30:00,28.8,16.6,30.38,South,181,5.0,12.0,60,0.00,FEW,,0.00,WeatherDisplay:10.37,2013-01-19 06:30:00,
2013-01-19 01:40:00,28.8,16.3,30.38,South,188,2.0,12.0,59,0.00,FEW,,0.00,WeatherDisplay:10.37,2013-01-19 06:40:00,
2013-01-19 01:50:00,28.8,16.3,30.38,South,191,8.0,13.0,59,0.00,FEW,,0.00,WeatherDisplay:10.37,2013-01-19 06:50:00,
2013-01-19 02:00:00,28.8,16.6,30.38,South,178,2.0,12.0,60,0.00,FEW,,0.00,WeatherDisplay:10.37,2013-01-19 07:00:00,
2013-01-19 02:10:00,28.5,16.4,30.38,SSW,200,2.0,13.0,60,0.00,FEW,,0.00,WeatherDisplay:10.37,2013-01-19 07:10:00,
2013-01-19 02:20:00,28.5,16.7,30.37,South,178,6.0,12.0,61,0.00,FEW,,0.00,WeatherDisplay:10.37,2013-01-19 07:20:00,
2013-01-19 02:30:00,28.4,16.7,30.37,South,185,5.0,10.0,61,0.00,FEW,,0.00,WeatherDisplay:10.37,2013-01-19 07:30:00,
2013-01-19 02:40:00,28.5,16.7,30.36,SSW,197,2.0,8.0,61,0.00,FEW,,0.00,WeatherDisplay:10.37,2013-01-19 07:40:00,
2013-01-19 02:50:00,28.5,16.7,30.36,South,187,6.0,12.0,61,0.00,FEW,,0.00,WeatherDisplay:10.37,2013-01-19 07:50:00,
2013-01-19 03:00:00,28.8,17.0,30.36,SSW,196,2.0,14.0,61,0.00,FEW,,0.00,WeatherDisplay:10.37,2013-01-19 08:00:00,
2013-01-19 03:10:00,28.9,17.5,30.35,South,174,5.0,12.0,62,0.00,BKN,,0.00,WeatherDisplay:10.37,2013-01-19 08:10:00,
2013-01-19 03:20:00,29.0,17.6,30.35,South,182,3.0,14.0,62,0.00,BKN,,0.00,WeatherDisplay:10.37,2013-01-19 08:20:00,
2013-01-19 03:30:00,29.0,18.0,30.34,SSW,206,2.0,9.0,63,0.00,BKN,,0.00,WeatherDisplay:10.37,2013-01-19 08:30:00,
2013-01-19 03:40:00,29.2,18.2,30.34,South,189,5.0,13.0,63,0.00,BKN,,0.00,WeatherDisplay:10.37,2013-01-19 08:40:00,
2013-01-19 03:50:00,29.3,18.3,30.34,SSW,211,2.0,13.0,63,0.00,BKN,,0.00,WeatherDisplay:10.37,2013-01-19 08:50:00,
2013-01-19 04:00:00,29.2,18.5,30.33,SSW,203,3.0,12.0,64,0.00,BKN,,0.00,WeatherDisplay:10.37,2013-01-19 09:00:00,
2013-01-19 04:10:00,29.2,18.5,30.33,SSW,197,5.0,13.0,64,0.00,BKN,,0.00,WeatherDisplay:10.37,2013-01-19 09:10:00,
2013-01-19 04:20:00,29.5,18.8,30.33,SW,222,5.0,12.0,64,0.00,BKN,,0.00,WeatherDisplay:10.37,2013-01-19 09:20:00,
2013-01-19 04:30:00,29.7,18.6,30.33,SSW,196,3.0,13.0,63,0.00,BKN,,0.00,WeatherDisplay:10.37,2013-01-19 09:30:00,
2013-01-19 04:40:00,29.7,19.0,30.32,South,178,2.0,8.0,64,0.00,BKN,,0.00,WeatherDisplay:10.37,2013-01-19 09:40:00,
2013-01-19 04:50:00,29.9,19.6,30.32,South,184,5.0,12.0,65,0.00,BKN,,0.00,WeatherDisplay:10.37,2013-01-19 09:50:00,
2013-01-19 05:00:00,30.1,20.1,30.32,SW,215,6.0,12.0,66,0.00,BKN,,0.00,WeatherDisplay:10.37,2013-01-19 10:00:00,
2013-01-19 05:10:00,30.2,20.2,30.31,SW,220,2.0,10.0,66,0.00,BKN,,0.00,WeatherDisplay:10.37,2013-01-19 10:10:00,
2013-01-19 05:20:00,30.2,20.6,30.31,SSW,192,3.0,13.0,67,0.00,BKN,,0.00,WeatherDisplay:10.37,2013-01-19 10:20:00,
2013-01-19 05:30:00,30.3,21.3,30.31,SSW,203,3.0,14.0,69,0.00,BKN,,0.00,WeatherDisplay:10.37,2013-01-19 10:30:00,
2013-01-19 05:40:00,30.5,21.8,30.30,SSW,197,7.0,15.0,70,0.00,BKN,,0.00,WeatherDisplay:10.37,2013-01-19 10:40:00,
2013-01-19 05:50:00,30.5,21.9,30.30,SSW,197,6.0,14.0,70,0.00,BKN,,0.00,WeatherDisplay:10.37,2013-01-19 10:50:00,
2013-01-19 06:00:00,30.6,22.3,30.30,SSW,194,8.0,15.0,71,0.00,BKN,,0.00,WeatherDisplay:10.37,2013-01-19 11:00:00,
2013-01-19 06:10:00,30.6,22.6,30.29,SSW,193,7.0,18.0,72,0.00,BKN,,0.00,WeatherDisplay:10.37,2013-01-19 11:10:00,
2013-01-19 07:50:00,31.4,24.3,30.27,SW,216,7.0,17.0,75,0.00,SCT,,0.00,WeatherDisplay:10.37,2013-01-19 12:50:00,
2013-01-19 08:00:00,31.7,24.7,30.27,SSW,207,7.0,17.0,75,0.00,SCT,,0.00,WeatherDisplay:10.37,2013-01-19 13:00:00,
2013-01-19 08:10:00,32.0,25.0,30.27,SSW,205,8.0,18.0,75,0.00,CLR,,0.00,WeatherDisplay:10.37,2013-01-19 13:10:00,
2013-01-19 08:20:00,32.6,25.5,30.27,SW,226,5.0,18.0,75,0.00,CLR,,0.00,WeatherDisplay:10.37,2013-01-19 13:20:00,
2013-01-19 08:30:00,33.0,25.9,30.27,SSW,200,9.0,22.0,75,0.00,CLR,,0.00,WeatherDisplay:10.37,2013-01-19 13:30:00,
2013-01-19 08:40:00,33.6,26.5,30.27,SW,222,5.0,17.0,75,0.00,CLR,,0.00,WeatherDisplay:10.37,2013-01-19 13:40:00,
2013-01-19 08:50:00,34.0,26.6,30.27,SW,232,8.0,18.0,74,0.00,CLR,,0.00,WeatherDisplay:10.37,2013-01-19 13:50:00,
2013-01-19 09:00:00,34.2,26.8,30.26,SSW,209,3.0,16.0,74,0.00,CLR,,0.00,WeatherDisplay:10.37,2013-01-19 14:00:00,
2013-01-19 09:10:00,34.4,27.0,30.26,SSW,209,5.0,17.0,74,0.00,CLR,,0.00,WeatherDisplay:10.37,2013-01-19 14:10:00,
2013-01-19 09:20:00,34.9,27.5,30.26,SW,216,6.0,20.0,74,0.00,CLR,,0.00,WeatherDisplay:10.37,2013-01-19 14:20:00,
2013-01-19 09:30:00,35.7,27.9,30.26,SW,216,8.0,20.0,73,0.00,CLR,,0.00,WeatherDisplay:10.37,2013-01-19 14:30:00,
2013-01-19 09:40:00,36.1,27.9,30.26,SW,231,8.0,17.0,72,0.00,CLR,,0.00,WeatherDisplay:10.37,2013-01-19 14:40:00,
2013-01-19 09:50:00,35.9,27.7,30.26,SW,230,7.0,18.0,72,0.00,CLR,,0.00,WeatherDisplay:10.37,2013-01-19 14:50:00,
2013-01-19 10:00:00,35.7,27.9,30.25,SW,236,7.0,20.0,73,0.00,CLR,,0.00,WeatherDisplay:10.37,2013-01-19 15:00:00,
2013-01-19 10:10:00,35.9,28.1,30.25,SW,217,5.0,12.0,73,0.00,CLR,,0.00,WeatherDisplay:10.37,2013-01-19 15:10:00,
2013-01-19 10:20:00,36.2,28.0,30.24,SW,224,6.0,18.0,72,0.00,CLR,,0.00,WeatherDisplay:10.37,2013-01-19 15:20:00,
2013-01-19 10:30:00,36.8,28.3,30.23,SW,220,8.0,16.0,71,0.00,CLR,,0.00,WeatherDisplay:10.37,2013-01-19 15:30:00,
2013-01-19 10:40:00,37.6,28.7,30.23,SW,219,7.0,15.0,70,0.00,CLR,,0.00,WeatherDisplay:10.37,2013-01-19 15:40:00,
2013-01-19 10:50:00,38.3,29.1,30.22,SW,223,6.0,15.0,69,0.00,CLR,,0.00,WeatherDisplay:10.37,2013-01-19 15:50:00,
2013-01-19 11:00:00,38.7,29.4,30.21,SSW,211,5.0,12.0,69,0.00,CLR,,0.00,WeatherDisplay:10.37,2013-01-19 16:00:00,
2013-01-19 11:10:00,39.2,29.6,30.21,SSW,212,3.0,10.0,68,0.00,CLR,,0.00,WeatherDisplay:10.37,2013-01-19 16:10:00,
2013-01-19 11:20:00,39.5,29.8,30.20,SW,224,8.0,12.0,68,0.00,CLR,,0.00,WeatherDisplay:10.37,2013-01-19 16:20:00,
2013-01-19 11:30:00,39.7,29.6,30.19,SSW,208,2.0,13.0,67,0.00,CLR,,0.00,WeatherDisplay:10.37,2013-01-19 16:30:00,
2013-01-19 11:40:00,40.1,30.4,30.18,SW,231,3.0,15.0,68,0.00,CLR,,0.00,WeatherDisplay:10.37,2013-01-19 16:40:00,
2013-01-19 11:50:00,40.6,30.5,30.17,SW,229,2.0,7.0,67,0.00,CLR,,0.00,WeatherDisplay:10.37,2013-01-19 16:50:00,
2013-01-19 12:00:00,41.0,31.2,30.16,SSW,213,5.0,10.0,68,0.00,CLR,,0.00,WeatherDisplay:10.37,2013-01-19 17:00:00,
2013-01-19 12:20:00,42.1,30.8,30.14,SW,233,2.0,12.0,64,0.00,CLR,,0.00,WeatherDisplay:10.37,2013-01-19 17:20:00,
2013-01-19 12:30:00,42.7,30.9,30.14,SW,215,2.0,12.0,63,0.00,CLR,,0.00,WeatherDisplay:10.37,2013-01-19 17:30:00,
2013-01-19 12:40:00,43.2,31.1,30.13,SSW,212,3.0,12.0,62,0.00,CLR,,0.00,WeatherDisplay:10.37,2013-01-19 17:40:00,
2013-01-19 12:50:00,43.6,31.0,30.12,SSW,204,5.0,15.0,61,0.00,CLR,,0.00,WeatherDisplay:10.37,2013-01-19 17:50:00,
2013-01-19 13:00:00,44.3,31.2,30.12,South,186,6.0,14.0,60,0.00,CLR,,0.00,WeatherDisplay:10.37,2013-01-19 18:00:00,
2013-01-19 13:10:00,44.5,31.1,30.11,SW,215,7.0,15.0,59,0.00,CLR,,0.00,WeatherDisplay:10.37,2013-01-19 18:10:00,
2013-01-19 13:20:00,44.7,30.8,30.11,SW,214,7.0,14.0,58,0.00,CLR,,0.00,WeatherDisplay:10.37,2013-01-19 18:20:00,
2013-01-19 13:30:00,44.7,30.8,30.10,SSW,204,2.0,12.0,58,0.00,CLR,,0.00,WeatherDisplay:10.37,2013-01-19 18:30:00,
2013-01-19 13:40:00,44.7,31.2,30.10,SSW,212,5.0,11.0,59,0.00,CLR,,0.00,WeatherDisplay:10.37,2013-01-19 18:40:00,
2013-01-19 13:50:00,45.0,31.1,30.10,SSW,211,5.0,13.0,58,0.00,CLR,,0.00,WeatherDisplay:10.37,2013-01-19 18:50:00,
2013-01-19 14:00:00,45.0,31.1,30.09,SW,215,1.0,12.0,58,0.00,CLR,,0.00,WeatherDisplay:10.37,2013-01-19 19:00:00,
2013-01-19 14:10:00,45.1,31.2,30.08,South,186,2.0,12.0,58,0.00,CLR,,0.00,WeatherDisplay:10.37,2013-01-19 19:10:00,
2013-01-19 14:20:00,45.3,31.4,30.08,SW,215,3.0,12.0,58,0.00,CLR,,0.00,WeatherDisplay:10.37,2013-01-19 19:20:00,
2013-01-19 14:30:00,45.4,31.0,30.08,South,175,3.0,8.0,57,0.00,CLR,,0.00,WeatherDisplay:10.37,2013-01-19 19:30:00,
2013-01-19 14:50:00,45.6,31.2,30.07,SW,214,5.0,10.0,57,0.00,CLR,,0.00,WeatherDisplay:10.37,2013-01-19 19:50:00,
2013-01-19 15:00:00,45.8,31.8,30.07,SSW,209,3.0,7.0,58,0.00,CLR,,0.00,WeatherDisplay:10.37,2013-01-19 20:00:00,
2013-01-19 15:10:00,45.9,31.5,30.07,SSW,206,1.0,8.0,57,0.00,CLR,,0.00,WeatherDisplay:10.37,2013-01-19 20:10:00,
2013-01-19 15:30:00,46.1,31.3,30.07,SW,225,1.0,6.0,56,0.00,CLR,,0.00,WeatherDisplay:10.37,2013-01-19 20:30:00,
2013-01-19 15:40:00,46.2,31.4,30.06,SW,218,0.0,7.0,56,0.00,CLR,,0.00,WeatherDisplay:10.37,2013-01-19 20:40:00,
2013-01-19 16:20:00,45.6,32.1,30.05,SW,215,0.0,3.0,59,0.00,CLR,,0.00,WeatherDisplay:10.37,2013-01-19 21:20:00,
2013-01-19 16:30:00,44.8,32.6,30.05,SW,215,0.0,2.0,62,0.00,CLR,,0.00,WeatherDisplay:10.37,2013-01-19 21:30:00,
2013-01-19 17:20:00,45.9,31.9,30.03,South,180,2.0,8.0,58,0.00,CLR,,0.00,WeatherDisplay:10.37,2013-01-19 22:20:00,
2013-01-19 17:30:00,45.4,31.0,30.03,South,172,2.0,6.0,57,0.00,CLR,,0.00,WeatherDisplay:10.37,2013-01-19 22:30:00,
2013-01-19 17:40:00,46.1,31.3,30.03,South,170,1.0,7.0,56,0.00,CLR,,0.00,WeatherDisplay:10.37,2013-01-19 22:40:00,
2013-01-19 17:50:00,46.5,31.6,30.03,South,170,1.0,6.0,56,0.00,CLR,,0.00,WeatherDisplay:10.37,2013-01-19 22:50:00,
2013-01-19 18:00:00,46.5,31.2,30.03,SW,219,2.0,6.0,55,0.00,CLR,,0.00,WeatherDisplay:10.37,2013-01-19 23:00:00,
2013-01-19 18:10:00,46.5,31.6,30.03,SSW,192,1.0,7.0,56,0.00,CLR,,0.00,WeatherDisplay:10.37,2013-01-19 23:10:00,
2013-01-19 18:20:00,46.6,32.2,30.03,South,182,1.0,10.0,57,0.00,CLR,,0.00,WeatherDisplay:10.37,2013-01-19 23:20:00,
2013-01-19 18:30:00,46.2,32.3,30.03,SSW,192,0.0,7.0,58,0.00,CLR,,0.00,WeatherDisplay:10.37,2013-01-19 23:30:00,
2013-01-19 18:50:00,46.4,32.4,30.02,SSW,209,5.0,13.0,58,0.00,CLR,,0.00,WeatherDisplay:10.37,2013-01-19 23:50:00,
2013-01-19 19:10:00,46.7,32.7,30.02,South,190,5.0,12.0,58,0.00,CLR,,0.00,WeatherDisplay:10.37,2013-01-20 00:10:00,
2013-01-19 19:20:00,46.6,33.0,30.02,South,184,5.0,10.0,59,0.00,CLR,,0.00,WeatherDisplay:10.37,2013-01-20 00:20:00,
2013-01-19 19:30:00,46.6,33.1,30.01,SSW,192,1.0,10.0,59,0.00,CLR,,0.00,WeatherDisplay:10.37,2013-01-20 00:30:00,
2013-01-19 19:40:00,46.5,33.0,30.01,South,185,2.0,13.0,59,0.00,CLR,,0.00,WeatherDisplay:10.37,2013-01-20 00:40:00,
2013-01-19 19:50:00,46.5,32.9,30.01,SSW,210,6.0,12.0,59,0.00,CLR,,0.00,WeatherDisplay:10.37,2013-01-20 00:50:00,
2013-01-19 20:10:00,45.7,32.6,30.00,SSW,192,1.0,9.0,60,0.00,CLR,,0.00,WeatherDisplay:10.37,2013-01-20 01:10:00,
2013-01-19 20:20:00,45.4,32.7,30.00,SSW,197,5.0,9.0,61,0.00,CLR,,0.00,WeatherDisplay:10.37,2013-01-20 01:20:00,
2013-01-19 20:30:00,45.2,32.5,30.00,SSW,201,1.0,7.0,61,0.00,CLR,,0.00,WeatherDisplay:10.37,2013-01-20 01:30:00,
2013-01-19 20:40:00,44.8,32.5,29.99,SSW,209,2.0,9.0,62,0.00,CLR,,0.00,WeatherDisplay:10.37,2013-01-20 01:40:00,
2013-01-19 20:50:00,44.7,32.5,29.99,South,191,1.0,12.0,62,0.00,CLR,,0.00,WeatherDisplay:10.37,2013-01-20 01:50:00,
2013-01-19 21:00:00,44.6,32.4,29.99,SSW,195,6.0,12.0,62,0.00,CLR,,0.00,WeatherDisplay:10.37,2013-01-20 02:00:00,
2013-01-19 21:10:00,44.3,32.5,29.98,SSW,196,6.0,9.0,63,0.00,CLR,,0.00,WeatherDisplay:10.37,2013-01-20 02:10:00,
2013-01-19 21:20:00,44.4,32.6,29.98,South,181,5.0,10.0,63,0.00,CLR,,0.00,WeatherDisplay:10.37,2013-01-20 02:20:00,
2013-01-19 21:30:00,44.3,32.5,29.98,South,181,3.0,10.0,63,0.00,CLR,,0.00,WeatherDisplay:10.37,2013-01-20 02:30:00,
2013-01-19 21:40:00,44.1,32.7,29.97,South,178,5.0,10.0,64,0.00,CLR,,0.00,WeatherDisplay:10.37,2013-01-20 02:40:00,
2013-01-19 21:50:00,44.0,32.6,29.97,SSE,167,5.0,9.0,64,0.00,CLR,,0.00,WeatherDisplay:10.37,2013-01-20 02:50:00,
2013-01-19 22:00:00,43.9,32.5,29.97,South,188,6.0,13.0,64,0.00,CLR,,0.00,WeatherDisplay:10.37,2013-01-20 03:00:00,
2013-01-19 22:10:00,43.8,32.4,29.96,SSW,199,6.0,13.0,64,0.00,CLR,,0.00,WeatherDisplay:10.37,2013-01-20 03:10:00,
2013-01-19 22:20:00,43.6,32.6,29.95,SSW,197,1.0,15.0,65,0.00,CLR,,0.00,WeatherDisplay:10.37,2013-01-20 03:20:00,
2013-01-19 22:40:00,43.5,32.5,29.95,SW,215,6.0,12.0,65,0.00,CLR,,0.00,WeatherDisplay:10.37,2013-01-20 03:40:00,
2013-01-19 22:50:00,43.4,32.4,29.94,SSW,195,5.0,12.0,65,0.00,CLR,,0.00,WeatherDisplay:10.37,2013-01-20 03:50:00,
2013-01-19 23:00:00,43.3,32.3,29.94,SSW,201,5.0,12.0,65,0.00,CLR,,0.00,WeatherDisplay:10.37,2013-01-20 04:00:00,
2013-01-19 23:10:00,43.1,32.5,29.93,SSW,198,3.0,10.0,66,0.00,CLR,,0.00,WeatherDisplay:10.37,2013-01-20 04:10:00,
2013-01-19 23:20:00,43.1,32.5,29.93,South,176,3.0,12.0,66,0.00,CLR,,0.00,WeatherDisplay:10.37,2013-01-20 04:20:00,
2013-01-19 23:30:00,42.9,32.3,29.92,SW,224,5.0,13.0,66,0.00,CLR,,0.00,WeatherDisplay:10.37,2013-01-20 04:30:00,
2013-01-19 23:40:00,42.8,32.2,29.91,SSW,194,5.0,12.0,66,0.00,CLR,,0.00,WeatherDisplay:10.37,2013-01-20 04:40:00,
2013-01-19 23:50:00,42.8,32.2,29.91,SSW,198,3.0,9.0,66,0.00,CLR,,0.00,WeatherDisplay:10.37,2013-01-20 04:50:00,